Wetterdaten: Woche 14.10.19 - 20.10.19 (KW42)
Datum Zeit Temp. Aussen Temp. o. S. Temp +5cm Feuchte Auss Luftdruck Regen Sonnenschein Regendauer Solar Windben Empfang
14.10.2019 00:00 17,1 C 15,1 C 15,1 C 95 % 1012,5 hPa 0,0 l/m 0,00 h 0,13 h 0 W/m 1,9 km/h (1 Bft) 93,73 %
14.10.2019 01:00 16,3 C 14,3 C 14,1 C 94 % 1013,0 hPa 0,0 l/m 0,00 h 0,00 h 0 W/m 4,7 km/h (1 Bft) 96,79 %
14.10.2019 02:00 15,5 C 13,8 C 13,4 C 94 % 1013,5 hPa 0,0 l/m 0,00 h 0,00 h 0 W/m 1,9 km/h (1 Bft) 97,52 %
14.10.2019 03:00 15,2 C 13,7 C 13,1 C 94 % 1014,0 hPa 0,0 l/m 0,00 h 0,00 h 0 W/m 1,9 km/h (1 Bft) 97,94 %
14.10.2019 04:00 14,8 C 13,0 C 12,6 C 94 % 1014,0 hPa 0,0 l/m 0,00 h 0,00 h 0 W/m 0,4 km/h (0 Bft) 99,01 %
14.10.2019 05:00 14,0 C 11,8 C 11,3 C 94 % 1013,9 hPa 0,0 l/m 0,00 h 0,00 h 0 W/m 0,0 km/h (0 Bft) 98,25 %
14.10.2019 06:00 13,1 C 11,5 C 11,0 C 94 % 1013,8 hPa 0,0 l/m 0,00 h 0,00 h 0 W/m 0,0 km/h (0 Bft) 99,93 %
14.10.2019 07:00 12,7 C 11,4 C 11,1 C 96 % 1013,4 hPa 0,0 l/m 0,00 h 0,00 h 0 W/m 0,4 km/h (0 Bft) 98,21 %
14.10.2019 08:00 12,7 C 12,4 C 12,0 C 96 % 1013,8 hPa 0,0 l/m 0,00 h 0,00 h 25 W/m 0,0 km/h (0 Bft) 98,15 %
14.10.2019 09:00 13,7 C 14,4 C 13,4 C 98 % 1013,6 hPa 0,0 l/m 0,10 h 0,00 h 99 W/m 0,1 km/h (0 Bft) 96,54 %
14.10.2019 10:00 15,1 C 16,7 C 15,3 C 99 % 1013,4 hPa 0,0 l/m 0,23 h 0,00 h 136 W/m 0,7 km/h (0 Bft) 98,69 %
14.10.2019 11:00 16,3 C 18,3 C 16,6 C 99 % 1012,8 hPa 0,0 l/m 0,03 h 0,00 h 175 W/m 1,6 km/h (1 Bft) 96,28 %
14.10.2019 12:00 18,4 C 23,2 C 18,9 C 93 % 1012,0 hPa 0,0 l/m 0,73 h 0,00 h 414 W/m 9,8 km/h (2 Bft) 98,79 %
14.10.2019 13:00 21,6 C 24,4 C 21,1 C 76 % 1011,1 hPa 0,0 l/m 0,77 h 0,00 h 364 W/m 19,3 km/h (3 Bft) 99,22 %
14.10.2019 14:00 22,3 C 25,5 C 21,3 C 74 % 1010,1 hPa 0,0 l/m 0,70 h 0,00 h 392 W/m 13,3 km/h (3 Bft) 95,42 %
14.10.2019 15:00 23,6 C 26,3 C 22,1 C 71 % 1009,4 hPa 0,0 l/m 0,90 h 0,00 h 365 W/m 15,0 km/h (3 Bft) 98,92 %
14.10.2019 16:00 23,5 C 24,6 C 22,1 C 70 % 1008,7 hPa 0,0 l/m 0,80 h 0,00 h 221 W/m 20,6 km/h (4 Bft) 98,09 %
14.10.2019 17:00 23,2 C 22,7 C 21,0 C 71 % 1008,0 hPa 0,0 l/m 0,43 h 0,00 h 83 W/m 16,8 km/h (3 Bft) 96,90 %
14.10.2019 18:00 22,0 C 20,3 C 19,7 C 74 % 1007,5 hPa 0,0 l/m 0,00 h 0,00 h 15 W/m 12,9 km/h (3 Bft) 98,19 %
14.10.2019 19:00 20,7 C 19,2 C 18,7 C 77 % 1007,6 hPa 0,0 l/m 0,00 h 0,00 h 0 W/m 13,3 km/h (3 Bft) 97,75 %
14.10.2019 20:00 20,1 C 18,9 C 18,3 C 77 % 1007,5 hPa 0,0 l/m 0,00 h 0,00 h 0 W/m 10,2 km/h (2 Bft) 97,71 %
14.10.2019 21:00 19,5 C 18,2 C 17,7 C 78 % 1007,1 hPa 0,0 l/m 0,00 h 0,00 h 0 W/m 10,0 km/h (2 Bft) 96,44 %
14.10.2019 22:00 19,4 C 18,2 C 17,6 C 80 % 1007,1 hPa 0,0 l/m 0,00 h 0,10 h 0 W/m 15,1 km/h (3 Bft) 98,43 %
14.10.2019 23:00 19,4 C 18,5 C 17,9 C 80 % 1006,8 hPa 0,0 l/m 0,00 h 0,03 h 0 W/m 14,9 km/h (3 Bft) 97,76 %
15.10.2019 00:00 19,2 C 17,9 C 17,3 C 80 % 1006,5 hPa 0,0 l/m 0,00 h 0,00 h 0 W/m 11,2 km/h (2 Bft) 95,60 %
15.10.2019 01:00 18,8 C 17,7 C 17,1 C 79 % 1006,5 hPa 0,0 l/m 0,00 h 0,00 h 0 W/m 19,4 km/h (3 Bft) 98,43 %
15.10.2019 02:00 18,2 C 16,8 C 16,4 C 81 % 1006,7 hPa 0,0 l/m 0,00 h 0,00 h 0 W/m 15,8 km/h (3 Bft) 97,65 %
15.10.2019 03:00 17,2 C 15,6 C 15,2 C 84 % 1006,7 hPa 0,0 l/m 0,00 h 0,00 h 0 W/m 9,8 km/h (2 Bft) 96,94 %
15.10.2019 04:00 16,2 C 14,0 C 13,5 C 87 % 1005,8 hPa 0,0 l/m 0,00 h 0,00 h 0 W/m 0,9 km/h (0 Bft) 96,87 %
15.10.2019 05:00 15,2 C 13,9 C 13,4 C 90 % 1005,7 hPa 0,0 l/m 0,00 h 0,00 h 0 W/m 6,2 km/h (2 Bft) 98,15 %
15.10.2019 06:00 14,7 C 13,3 C 13,1 C 92 % 1005,7 hPa 0,0 l/m 0,00 h 0,00 h 0 W/m 3,3 km/h (1 Bft) 97,59 %
15.10.2019 07:00 14,3 C 13,0 C 12,5 C 93 % 1005,8 hPa 0,0 l/m 0,00 h 0,00 h 0 W/m 1,3 km/h (1 Bft) 97,58 %
15.10.2019 08:00 14,0 C 13,3 C 12,7 C 94 % 1006,3 hPa 0,0 l/m 0,00 h 0,03 h 20 W/m 0,4 km/h (0 Bft) 97,22 %
15.10.2019 09:00 14,5 C 13,9 C 13,1 C 95 % 1007,0 hPa 0,2 l/m 0,00 h 0,63 h 54 W/m 0,9 km/h (0 Bft) 98,42 %
15.10.2019 10:00 15,5 C 15,7 C 14,4 C 95 % 1006,9 hPa 0,0 l/m 0,07 h 0,00 h 119 W/m 2,7 km/h (1 Bft) 97,65 %
15.10.2019 11:00 16,5 C 18,0 C 15,5 C 92 % 1006,9 hPa 0,0 l/m 0,37 h 0,00 h 209 W/m 3,2 km/h (1 Bft) 95,93 %
15.10.2019 12:00 17,1 C 17,0 C 16,1 C 88 % 1007,1 hPa 0,0 l/m 0,00 h 0,03 h 121 W/m 5,0 km/h (1 Bft) 99,63 %
15.10.2019 13:00 16,9 C 16,9 C 16,1 C 88 % 1007,3 hPa 0,0 l/m 0,07 h 0,03 h 137 W/m 7,8 km/h (2 Bft) 97,93 %
15.10.2019 14:00 17,1 C 17,5 C 16,4 C 86 % 1007,0 hPa 0,0 l/m 0,17 h 0,00 h 187 W/m 11,1 km/h (2 Bft) 95,73 %
15.10.2019 15:00 17,1 C 15,6 C 15,0 C 87 % 1006,8 hPa 0,0 l/m 0,00 h 0,60 h 77 W/m 8,9 km/h (2 Bft) 99,71 %
15.10.2019 16:00 16,4 C 15,0 C 14,6 C 91 % 1006,6 hPa 0,0 l/m 0,00 h 0,03 h 36 W/m 4,8 km/h (1 Bft) 96,86 %
15.10.2019 17:00 15,6 C 14,2 C 13,8 C 91 % 1006,7 hPa 0,2 l/m 0,00 h 0,43 h 17 W/m 5,5 km/h (1 Bft) 96,95 %
15.10.2019 18:00 15,0 C 13,0 C 12,7 C 93 % 1007,2 hPa 0,4 l/m 0,00 h 0,93 h 6 W/m 2,2 km/h (1 Bft) 98,50 %
15.10.2019 19:00 14,3 C 12,2 C 12,2 C 94 % 1007,7 hPa 0,6 l/m 0,00 h 0,73 h 0 W/m 1,2 km/h (1 Bft) 96,15 %
15.10.2019 20:00 13,8 C 12,2 C 12,2 C 96 % 1008,1 hPa 0,6 l/m 0,00 h 0,83 h 0 W/m 1,3 km/h (1 Bft) 99,15 %
15.10.2019 21:00 13,7 C 12,2 C 12,2 C 97 % 1008,5 hPa 1,6 l/m 0,00 h 1,00 h 0 W/m 3,9 km/h (1 Bft) 97,43 %
15.10.2019 22:00 13,5 C 12,2 C 11,7 C 98 % 1009,0 hPa 0,4 l/m 0,00 h 1,00 h 0 W/m 5,6 km/h (1 Bft) 96,30 %
15.10.2019 23:00 13,2 C 11,9 C 11,6 C 98 % 1009,2 hPa 0,4 l/m 0,00 h 0,80 h 0 W/m 9,5 km/h (2 Bft) 99,72 %
16.10.2019 00:00 12,7 C 11,6 C 11,1 C 98 % 1009,3 hPa 0,0 l/m 0,00 h 0,50 h 0 W/m 6,3 km/h (2 Bft) 97,66 %
16.10.2019 01:00 12,7 C 11,7 C 11,1 C 98 % 1009,6 hPa 0,0 l/m 0,00 h 0,00 h 0 W/m 7,5 km/h (2 Bft) 96,02 %
16.10.2019 02:00 12,5 C 11,4 C 10,9 C 98 % 1009,9 hPa 0,0 l/m 0,00 h 0,17 h 0 W/m 13,0 km/h (3 Bft) 99,72 %
16.10.2019 03:00 12,3 C 11,0 C 10,6 C 98 % 1010,0 hPa 0,2 l/m 0,00 h 0,37 h 0 W/m 14,2 km/h (3 Bft) 97,22 %
16.10.2019 04:00 11,9 C 10,5 C 10,1 C 97 % 1010,0 hPa 0,0 l/m 0,00 h 0,00 h 0 W/m 17,2 km/h (3 Bft) 95,87 %
16.10.2019 05:00 11,4 C 10,0 C 9,5 C 95 % 1010,1 hPa 0,0 l/m 0,00 h 0,00 h 0 W/m 13,8 km/h (3 Bft) 99,64 %
16.10.2019 06:00 11,4 C 10,1 C 9,6 C 96 % 1010,2 hPa 0,4 l/m 0,00 h 0,30 h 0 W/m 13,7 km/h (3 Bft) 97,09 %
16.10.2019 07:00 11,4 C 10,0 C 10,0 C 97 % 1010,2 hPa 0,0 l/m 0,00 h 0,00 h 0 W/m 8,7 km/h (2 Bft) 96,86 %
16.10.2019 08:00 11,2 C 10,0 C 9,6 C 97 % 1010,4 hPa 0,0 l/m 0,00 h 0,00 h 15 W/m 10,7 km/h (2 Bft) 96,72 %
16.10.2019 09:00 11,2 C 10,7 C 10,0 C 97 % 1010,6 hPa 0,0 l/m 0,07 h 0,00 h 57 W/m 12,3 km/h (3 Bft) 97,51 %
16.10.2019 10:00 12,8 C 15,2 C 12,5 C 94 % 1010,7 hPa 0,0 l/m 1,00 h 0,00 h 311 W/m 17,6 km/h (3 Bft) 96,87 %
16.10.2019 11:00 15,3 C 19,8 C 13,8 C 84 % 1010,4 hPa 0,0 l/m 1,00 h 0,00 h 446 W/m 19,3 km/h (3 Bft) 97,50 %
16.10.2019 12:00 16,2 C 16,4 C 14,8 C 80 % 1009,9 hPa 0,0 l/m 0,23 h 0,00 h 168 W/m 18,1 km/h (3 Bft) 99,65 %
16.10.2019 13:00 15,2 C 14,0 C 13,5 C 86 % 1009,7 hPa 0,0 l/m 0,00 h 0,17 h 108 W/m 21,1 km/h (4 Bft) 95,87 %
16.10.2019 14:00 14,1 C 12,3 C 11,9 C 93 % 1009,3 hPa 0,6 l/m 0,00 h 0,40 h 78 W/m 16,5 km/h (3 Bft) 97,65 %
16.10.2019 15:00 13,6 C 12,2 C 12,0 C 97 % 1009,0 hPa 0,2 l/m 0,00 h 0,17 h 38 W/m 17,7 km/h (3 Bft) 99,57 %
16.10.2019 16:00 13,7 C 12,8 C 12,2 C 98 % 1008,9 hPa 0,0 l/m 0,00 h 0,00 h 29 W/m 15,1 km/h (3 Bft) 95,75 %
16.10.2019 17:00 14,2 C 13,3 C 12,3 C 95 % 1008,8 hPa 0,0 l/m 0,00 h 0,07 h 22 W/m 17,4 km/h (3 Bft) 97,44 %
16.10.2019 18:00 14,6 C 13,2 C 12,2 C 92 % 1008,9 hPa 0,0 l/m 0,00 h 0,40 h 1 W/m 18,5 km/h (3 Bft) 99,04 %
16.10.2019 19:00 14,5 C 12,6 C 12,1 C 93 % 1009,0 hPa 0,2 l/m 0,00 h 0,30 h 0 W/m 15,0 km/h (3 Bft) 95,60 %
16.10.2019 20:00 14,0 C 12,2 C 12,0 C 95 % 1009,0 hPa 0,4 l/m 0,00 h 0,40 h 0 W/m 10,0 km/h (2 Bft) 96,94 %
16.10.2019 21:00 13,8 C 12,5 C 12,2 C 97 % 1008,9 hPa 0,0 l/m 0,00 h 0,00 h 0 W/m 11,4 km/h (2 Bft) 98,37 %
16.10.2019 22:00 14,0 C 12,5 C 12,0 C 96 % 1009,0 hPa 0,2 l/m 0,00 h 0,80 h 0 W/m 14,8 km/h (3 Bft) 96,50 %
16.10.2019 23:00 14,1 C 12,2 C 11,7 C 95 % 1009,0 hPa 0,6 l/m 0,00 h 1,00 h 0 W/m 14,8 km/h (3 Bft) 96,09 %
17.10.2019 00:00 13,8 C 12,2 C 11,7 C 96 % 1008,8 hPa 0,2 l/m 0,00 h 0,57 h 0 W/m 10,4 km/h (2 Bft) 95,54 %
17.10.2019 01:00 13,7 C 12,2 C 11,7 C 97 % 1008,7 hPa 0,2 l/m 0,00 h 0,50 h 0 W/m 8,9 km/h (2 Bft) 98,36 %
17.10.2019 02:00 13,5 C 12,2 C 11,7 C 98 % 1008,7 hPa 0,4 l/m 0,00 h 0,63 h 0 W/m 12,1 km/h (2 Bft) 97,21 %
17.10.2019 03:00 13,6 C 12,4 C 12,1 C 98 % 1008,6 hPa 0,0 l/m 0,00 h 0,17 h 0 W/m 11,0 km/h (2 Bft) 97,51 %
17.10.2019 04:00 13,8 C 12,8 C 12,2 C 98 % 1008,6 hPa 0,0 l/m 0,00 h 0,00 h 0 W/m 19,9 km/h (4 Bft) 97,86 %
17.10.2019 05:00 14,2 C 12,8 C 12,2 C 96 % 1008,7 hPa 0,0 l/m 0,00 h 0,00 h 0 W/m 20,8 km/h (4 Bft) 97,30 %
17.10.2019 06:00 14,3 C 13,2 C 12,2 C 94 % 1008,7 hPa 0,0 l/m 0,00 h 0,00 h 0 W/m 19,0 km/h (3 Bft) 97,83 %
17.10.2019 07:00 14,4 C 13,9 C 12,6 C 94 % 1009,1 hPa 0,0 l/m 0,00 h 0,00 h 0 W/m 19,6 km/h (3 Bft) 97,74 %
17.10.2019 08:00 14,4 C 13,7 C 13,1 C 95 % 1009,8 hPa 0,0 l/m 0,00 h 0,00 h 10 W/m 18,9 km/h (3 Bft) 97,55 %
17.10.2019 09:00 14,4 C 13,3 C 12,8 C 96 % 1010,4 hPa 0,0 l/m 0,00 h 0,10 h 39 W/m 18,0 km/h (3 Bft) 97,01 %
17.10.2019 10:00 14,4 C 13,3 C 12,8 C 98 % 1010,8 hPa 0,4 l/m 0,00 h 0,47 h 60 W/m 15,1 km/h (3 Bft) 96,51 %
17.10.2019 11:00 14,3 C 13,9 C 12,9 C 98 % 1011,5 hPa 0,0 l/m 0,30 h 0,20 h 190 W/m 9,7 km/h (2 Bft) 98,29 %
17.10.2019 12:00 15,1 C 19,0 C 13,7 C 96 % 1011,8 hPa 0,0 l/m 0,67 h 0,00 h 351 W/m 13,3 km/h (3 Bft) 97,97 %
17.10.2019 13:00 16,5 C 18,0 C 14,5 C 84 % 1011,5 hPa 0,0 l/m 0,53 h 0,00 h 276 W/m 16,2 km/h (3 Bft) 98,65 %
17.10.2019 14:00 16,2 C 15,6 C 14,5 C 84 % 1011,4 hPa 0,0 l/m 0,07 h 0,00 h 165 W/m 16,0 km/h (3 Bft) 97,65 %
17.10.2019 15:00 15,4 C 14,6 C 13,8 C 91 % 1011,1 hPa 0,0 l/m 0,17 h 0,03 h 123 W/m 14,7 km/h (3 Bft) 94,07 %
17.10.2019 16:00 14,9 C 14,4 C 13,9 C 94 % 1010,5 hPa 0,0 l/m 0,00 h 0,00 h 56 W/m 11,7 km/h (2 Bft) 99,14 %
17.10.2019 17:00 14,9 C 14,3 C 13,9 C 95 % 1010,0 hPa 0,0 l/m 0,03 h 0,00 h 45 W/m 10,2 km/h (2 Bft) 98,50 %
17.10.2019 18:00 15,2 C 14,0 C 13,5 C 96 % 1009,9 hPa 0,2 l/m 0,00 h 0,23 h 12 W/m 11,8 km/h (2 Bft) 95,10 %
17.10.2019 19:00 15,1 C 13,3 C 13,3 C 96 % 1010,0 hPa 0,4 l/m 0,00 h 0,40 h 0 W/m 8,8 km/h (2 Bft) 99,28 %
17.10.2019 20:00 14,8 C 13,3 C 12,9 C 97 % 1010,1 hPa 0,4 l/m 0,00 h 0,20 h 0 W/m 4,7 km/h (1 Bft) 97,30 %
17.10.2019 21:00 14,6 C 13,3 C 12,8 C 98 % 1010,0 hPa 0,0 l/m 0,00 h 0,00 h 0 W/m 5,3 km/h (1 Bft) 97,30 %
17.10.2019 22:00 14,3 C 13,1 C 12,6 C 98 % 1010,2 hPa 0,0 l/m 0,00 h 0,00 h 0 W/m 5,2 km/h (1 Bft) 98,52 %
17.10.2019 23:00 13,9 C 12,6 C 12,1 C 98 % 1010,1 hPa 0,0 l/m 0,00 h 0,00 h 0 W/m 3,0 km/h (1 Bft) 96,23 %
18.10.2019 00:00 13,5 C 12,0 C 11,8 C 98 % 1009,9 hPa 0,0 l/m 0,00 h 0,00 h 0 W/m 4,3 km/h (1 Bft) 95,34 %
18.10.2019 01:00 12,9 C 11,7 C 11,4 C 97 % 1009,6 hPa 0,0 l/m 0,00 h 0,00 h 0 W/m 5,5 km/h (1 Bft) 97,80 %
18.10.2019 02:00 12,5 C 11,2 C 11,1 C 97 % 1009,3 hPa 0,0 l/m 0,00 h 0,00 h 0 W/m 7,0 km/h (2 Bft) 94,43 %
18.10.2019 03:00 12,3 C 11,3 C 11,1 C 96 % 1008,9 hPa 0,0 l/m 0,00 h 0,00 h 0 W/m 10,0 km/h (2 Bft) 99,93 %
18.10.2019 04:00 12,6 C 11,7 C 11,3 C 95 % 1008,2 hPa 0,0 l/m 0,00 h 0,30 h 0 W/m 14,0 km/h (3 Bft) 98,22 %
18.10.2019 05:00 12,6 C 11,2 C 10,6 C 95 % 1007,5 hPa 0,2 l/m 0,00 h 0,13 h 0 W/m 16,0 km/h (3 Bft) 95,44 %
18.10.2019 06:00 12,6 C 11,7 C 11,0 C 95 % 1007,1 hPa 0,4 l/m 0,00 h 0,43 h 0 W/m 16,1 km/h (3 Bft) 99,63 %
18.10.2019 07:00 13,1 C 11,7 C 11,1 C 97 % 1006,5 hPa 0,2 l/m 0,00 h 0,10 h 0 W/m 6,9 km/h (2 Bft) 97,58 %
18.10.2019 08:00 13,1 C 12,1 C 11,6 C 97 % 1006,3 hPa 0,0 l/m 0,00 h 0,00 h 17 W/m 14,5 km/h (3 Bft) 94,98 %
18.10.2019 09:00 13,7 C 12,9 C 11,9 C 95 % 1006,0 hPa 0,0 l/m 0,07 h 0,00 h 55 W/m 15,1 km/h (3 Bft) 99,22 %
18.10.2019 10:00 15,1 C 15,5 C 14,6 C 88 % 1005,2 hPa 0,0 l/m 0,30 h 0,00 h 161 W/m 23,9 km/h (4 Bft) 97,51 %
18.10.2019 11:00 16,2 C 15,1 C 14,0 C 83 % 1004,6 hPa 3,6 l/m 0,17 h 0,40 h 137 W/m 30,6 km/h (5 Bft) 96,51 %
18.10.2019 12:00 11,9 C 10,2 C 9,7 C 91 % 1005,4 hPa 0,6 l/m 0,07 h 0,90 h 97 W/m 24,1 km/h (4 Bft) 98,08 %
18.10.2019 13:00 11,7 C 11,1 C 9,8 C 90 % 1005,7 hPa 0,0 l/m 0,00 h 0,00 h 96 W/m 28,9 km/h (5 Bft) 97,65 %
18.10.2019 14:00 13,4 C 15,5 C 11,5 C 82 % 1006,2 hPa 0,0 l/m 0,77 h 0,00 h 406 W/m 33,4 km/h (5 Bft) 97,15 %
18.10.2019 15:00 14,6 C 16,7 C 13,2 C 75 % 1006,7 hPa 0,0 l/m 0,80 h 0,00 h 356 W/m 27,5 km/h (4 Bft) 97,08 %
18.10.2019 16:00 14,5 C 15,5 C 13,1 C 75 % 1007,4 hPa 0,0 l/m 0,73 h 0,00 h 223 W/m 27,7 km/h (4 Bft) 99,57 %
18.10.2019 17:00 14,3 C 13,8 C 12,8 C 75 % 1008,1 hPa 0,0 l/m 0,23 h 0,00 h 73 W/m 24,6 km/h (4 Bft) 95,87 %
18.10.2019 18:00 13,6 C 12,5 C 11,9 C 75 % 1008,5 hPa 0,0 l/m 0,00 h 0,00 h 13 W/m 18,4 km/h (3 Bft) 97,61 %
18.10.2019 19:00 12,6 C 11,1 C 10,7 C 78 % 1009,0 hPa 0,0 l/m 0,00 h 0,00 h 0 W/m 13,4 km/h (3 Bft) 99,22 %
18.10.2019 20:00 11,8 C 10,6 C 10,2 C 82 % 1008,9 hPa 0,0 l/m 0,00 h 0,00 h 0 W/m 15,0 km/h (3 Bft) 96,72 %
18.10.2019 21:00 11,5 C 10,6 C 10,0 C 83 % 1008,7 hPa 0,0 l/m 0,00 h 0,00 h 0 W/m 16,5 km/h (3 Bft) 96,23 %
18.10.2019 22:00 11,4 C 10,6 C 10,0 C 83 % 1008,6 hPa 0,0 l/m 0,00 h 0,00 h 0 W/m 14,8 km/h (3 Bft) 98,43 %
18.10.2019 23:00 11,1 C 10,0 C 9,6 C 85 % 1008,4 hPa 0,0 l/m 0,00 h 0,00 h 0 W/m 13,3 km/h (3 Bft) 97,94 %
19.10.2019 00:00 11,0 C 10,1 C 10,0 C 86 % 1008,1 hPa 0,0 l/m 0,00 h 0,00 h 0 W/m 14,6 km/h (3 Bft) 98,19 %
19.10.2019 01:00 10,9 C 9,7 C 9,5 C 87 % 1007,9 hPa 0,0 l/m 0,00 h 0,00 h 0 W/m 14,2 km/h (3 Bft) 94,89 %
19.10.2019 02:00 10,6 C 9,8 C 9,4 C 89 % 1007,5 hPa 0,0 l/m 0,00 h 0,00 h 0 W/m 15,7 km/h (3 Bft) 98,01 %
19.10.2019 03:00 10,8 C 10,0 C 9,5 C 89 % 1006,9 hPa 0,0 l/m 0,00 h 0,00 h 0 W/m 15,9 km/h (3 Bft) 99,43 %
19.10.2019 04:00 11,1 C 10,5 C 9,9 C 89 % 1006,7 hPa 0,0 l/m 0,00 h 0,00 h 0 W/m 17,2 km/h (3 Bft) 96,25 %
19.10.2019 05:00 11,4 C 10,7 C 10,4 C 89 % 1006,3 hPa 0,0 l/m 0,00 h 0,00 h 0 W/m 19,7 km/h (3 Bft) 96,65 %
19.10.2019 06:00 11,6 C 10,7 C 10,2 C 89 % 1006,1 hPa 0,0 l/m 0,00 h 0,10 h 0 W/m 16,0 km/h (3 Bft) 99,37 %
19.10.2019 07:00 11,4 C 10,6 C 10,0 C 90 % 1005,7 hPa 0,0 l/m 0,00 h 0,07 h 0 W/m 16,8 km/h (3 Bft) 96,65 %
19.10.2019 08:00 11,4 C 10,3 C 9,6 C 91 % 1005,4 hPa 0,0 l/m 0,00 h 0,27 h 11 W/m 17,3 km/h (3 Bft) 96,37 %
19.10.2019 09:00 11,6 C 9,9 C 9,4 C 93 % 1005,5 hPa 0,6 l/m 0,00 h 0,97 h 21 W/m 17,2 km/h (3 Bft) 99,07 %
19.10.2019 10:00 11,8 C 10,6 C 10,1 C 95 % 1005,3 hPa 0,2 l/m 0,00 h 0,33 h 56 W/m 17,2 km/h (3 Bft) 96,58 %
19.10.2019 11:00 12,6 C 12,0 C 11,3 C 96 % 1005,4 hPa 0,0 l/m 0,00 h 0,03 h 110 W/m 20,0 km/h (4 Bft) 97,58 %
19.10.2019 12:00 13,6 C 13,6 C 12,2 C 95 % 1005,3 hPa 0,0 l/m 0,00 h 0,10 h 142 W/m 17,8 km/h (3 Bft) 98,72 %
19.10.2019 13:00 13,9 C 12,6 C 11,8 C 93 % 1005,1 hPa 0,2 l/m 0,00 h 0,40 h 82 W/m 14,7 km/h (3 Bft) 95,94 %
19.10.2019 14:00 13,2 C 11,9 C 11,4 C 94 % 1005,1 hPa 0,4 l/m 0,00 h 0,33 h 65 W/m 8,8 km/h (2 Bft) 97,27 %
19.10.2019 15:00 13,2 C 11,7 C 11,6 C 96 % 1005,2 hPa 2,0 l/m 0,00 h 1,00 h 42 W/m 4,2 km/h (1 Bft) 97,36 %
19.10.2019 16:00 13,2 C 11,9 C 11,7 C 97 % 1005,3 hPa 0,6 l/m 0,00 h 0,93 h 33 W/m 1,8 km/h (1 Bft) 96,80 %
19.10.2019 17:00 13,0 C 11,5 C 11,2 C 97 % 1005,5 hPa 0,0 l/m 0,00 h 0,37 h 21 W/m 10,1 km/h (2 Bft) 99,29 %
19.10.2019 18:00 12,4 C 11,1 C 10,6 C 97 % 1005,8 hPa 0,0 l/m 0,00 h 0,00 h 12 W/m 3,2 km/h (1 Bft) 95,35 %
19.10.2019 19:00 12,1 C 10,9 C 10,6 C 98 % 1006,1 hPa 0,0 l/m 0,00 h 0,00 h 0 W/m 2,2 km/h (1 Bft) 97,36 %
19.10.2019 20:00 11,9 C 10,6 C 10,2 C 98 % 1006,3 hPa 0,0 l/m 0,00 h 0,00 h 0 W/m 1,4 km/h (1 Bft) 99,15 %
19.10.2019 21:00 11,6 C 10,6 C 10,0 C 98 % 1006,7 hPa 0,0 l/m 0,00 h 0,00 h 0 W/m 1,4 km/h (1 Bft) 96,15 %
19.10.2019 22:00 11,4 C 10,3 C 10,0 C 99 % 1007,1 hPa 0,0 l/m 0,00 h 0,00 h 0 W/m 2,0 km/h (1 Bft) 95,69 %
19.10.2019 23:00 11,2 C 10,0 C 9,9 C 99 % 1007,4 hPa 0,2 l/m 0,00 h 0,00 h 0 W/m 2,6 km/h (1 Bft) 98,29 %
20.10.2019 00:00 11,1 C 10,0 C 9,4 C 99 % 1007,8 hPa 0,0 l/m 0,00 h 0,00 h 0 W/m 1,5 km/h (1 Bft) 97,92 %
20.10.2019 01:00 10,9 C 10,0 C 9,4 C 99 % 1007,9 hPa 0,0 l/m 0,00 h 0,00 h 0 W/m 0,0 km/h (0 Bft) 96,51 %
20.10.2019 02:00 10,8 C 9,7 C 9,4 C 99 % 1007,9 hPa 0,0 l/m 0,00 h 0,00 h 0 W/m 0,0 km/h (0 Bft) 98,22 %
20.10.2019 03:00 10,6 C 9,4 C 9,1 C 99 % 1007,6 hPa 0,0 l/m 0,00 h 0,00 h 0 W/m 0,0 km/h (0 Bft) 98,57 %
20.10.2019 04:00 10,4 C 9,7 C 9,4 C 99 % 1007,8 hPa 0,0 l/m 0,00 h 0,10 h 0 W/m 0,5 km/h (0 Bft) 95,87 %
20.10.2019 05:00 10,7 C 10,0 C 9,4 C 99 % 1007,9 hPa 0,0 l/m 0,00 h 0,13 h 0 W/m 1,9 km/h (1 Bft) 99,22 %
20.10.2019 06:00 10,8 C 10,0 C 9,4 C 100 % 1008,1 hPa 0,0 l/m 0,00 h 0,17 h 0 W/m 1,8 km/h (1 Bft) 99,26 %
20.10.2019 07:00 10,8 C 10,0 C 9,4 C 100 % 1008,3 hPa 0,0 l/m 0,00 h 0,00 h 0 W/m 0,2 km/h (0 Bft) 92,54 %
20.10.2019 08:00 10,7 C 10,0 C 9,6 C 100 % 1008,4 hPa 0,0 l/m 0,00 h 0,00 h 16 W/m 0,0 km/h (0 Bft) 99,71 %
20.10.2019 09:00 11,0 C 11,0 C 10,4 C 100 % 1008,7 hPa 0,0 l/m 0,00 h 0,00 h 39 W/m 0,0 km/h (0 Bft) 98,29 %
20.10.2019 10:00 11,9 C 11,7 C 11,1 C 100 % 1008,8 hPa 0,0 l/m 0,00 h 0,00 h 44 W/m 0,4 km/h (0 Bft) 95,59 %
20.10.2019 11:00 12,2 C 11,7 C 11,1 C 100 % 1009,0 hPa 1,0 l/m 0,00 h 0,73 h 30 W/m 0,0 km/h (0 Bft) 98,93 %
20.10.2019 12:00 12,4 C 11,7 C 11,1 C 100 % 1008,9 hPa 1,0 l/m 0,00 h 1,00 h 40 W/m 1,0 km/h (0 Bft) 96,81 %
20.10.2019 13:00 12,3 C 11,5 C 11,1 C 100 % 1008,7 hPa 0,2 l/m 0,00 h 0,67 h 32 W/m 1,4 km/h (1 Bft) 95,66 %
20.10.2019 14:00 11,9 C 10,8 C 10,7 C 100 % 1009,0 hPa 1,6 l/m 0,00 h 0,90 h 27 W/m 4,1 km/h (1 Bft) 96,79 %
20.10.2019 15:00 11,3 C 10,4 C 10,2 C 100 % 1008,6 hPa 1,2 l/m 0,00 h 1,00 h 39 W/m 4,0 km/h (1 Bft) 99,43 %
20.10.2019 16:00 11,2 C 10,3 C 10,0 C 100 % 1008,4 hPa 0,4 l/m 0,00 h 0,70 h 30 W/m 4,1 km/h (1 Bft) 96,72 %
20.10.2019 17:00 11,1 C 10,0 C 10,0 C 100 % 1008,1 hPa 0,0 l/m 0,00 h 0,20 h 12 W/m 6,4 km/h (2 Bft) 96,30 %
20.10.2019 18:00 11,2 C 10,3 C 10,0 C 100 % 1008,6 hPa 0,2 l/m 0,00 h 0,17 h 5 W/m 4,1 km/h (1 Bft) 98,05 %
20.10.2019 19:00 11,2 C 10,6 C 10,0 C 100 % 1008,9 hPa 0,0 l/m 0,00 h 0,47 h 0 W/m 3,6 km/h (1 Bft) 96,77 %
20.10.2019 20:00 11,3 C 10,6 C 10,0 C 100 % 1009,3 hPa 0,2 l/m 0,00 h 0,00 h 0 W/m 2,8 km/h (1 Bft) 95,14 %
20.10.2019 21:00 11,3 C 10,6 C 10,0 C 100 % 1009,4 hPa 0,0 l/m 0,00 h 0,00 h 0 W/m 2,7 km/h (1 Bft) 99,59 %
20.10.2019 22:00 11,2 C 10,6 C 10,0 C 100 % 1009,9 hPa 0,0 l/m 0,00 h 0,07 h 0 W/m 2,1 km/h (1 Bft) 97,11 %
20.10.2019 23:00 11,3 C 10,6 C 10,0 C 100 % 1010,2 hPa 1,0 l/m 0,00 h 1,00 h 0 W/m 3,2 km/h (1 Bft) 95,91 %
Min-Datum _ 20.10.19 18.10.19 20.10.19 14.10.19 18.10.19 - - - - 14.10.19 18.10.19
_ Min-Zeit 04:00 11:54 02:22 15:54 11:30 - - - - 00:10 00:02
Minimum _ 10,4 C 9,4 C 8,9 C 69 % 1004,1 hPa - - - - 0,0 km/h (0 Bft) 12,50 %
Max-Datum _ 14.10.19 14.10.19 14.10.19 20.10.19 14.10.19 18.10.19 16.10.19 15.10.19 18.10.19 18.10.19 14.10.19
_ Max-Zeit 15:28 14:56 13:36 05:58 03:16 11:52 12:08 18:08 14:26 15:28 00:52
Maximum _ 23,7 C 28,3 C 23,3 C 100 % 1014,2 hPa 3,6 l/m 0,07 h 0,07 h 651 W/m 54,7 km/h
S-SO (7 Bft)
100,00 %
Durchschnitt _ 14,0 C 13,2 C 12,4 C 92 % 1008,5 hPa #25,4 l/m #12:34 h #30:30 h 109 W/m 10,2 km/h (2 Bft) 97,45 %
© 2019 W. Hausmann